sensor_id;sensor_type;location;lat;lon;timestamp;temperature;humidity
820;DHT22;392;48.838;2.322;2023-08-31T00:01:31;17.90;27.20
820;DHT22;392;48.838;2.322;2023-08-31T00:03:59;17.90;27.10
820;DHT22;392;48.838;2.322;2023-08-31T00:06:26;17.90;27.30
820;DHT22;392;48.838;2.322;2023-08-31T00:08:55;17.90;27.20
820;DHT22;392;48.838;2.322;2023-08-31T00:11:23;17.90;27.50
820;DHT22;392;48.838;2.322;2023-08-31T00:13:51;17.80;27.30
820;DHT22;392;48.838;2.322;2023-08-31T00:16:24;17.90;27.40
820;DHT22;392;48.838;2.322;2023-08-31T00:18:52;17.80;27.40
820;DHT22;392;48.838;2.322;2023-08-31T00:21:20;17.80;27.40
820;DHT22;392;48.838;2.322;2023-08-31T00:23:48;17.80;27.40
820;DHT22;392;48.838;2.322;2023-08-31T00:26:17;17.80;27.40
820;DHT22;392;48.838;2.322;2023-08-31T00:28:47;17.80;27.40
820;DHT22;392;48.838;2.322;2023-08-31T00:31:14;17.70;27.50
820;DHT22;392;48.838;2.322;2023-08-31T00:33:41;17.70;27.40
820;DHT22;392;48.838;2.322;2023-08-31T00:36:09;17.70;27.50
820;DHT22;392;48.838;2.322;2023-08-31T00:38:37;17.70;27.80
820;DHT22;392;48.838;2.322;2023-08-31T00:41:04;17.70;27.60
820;DHT22;392;48.838;2.322;2023-08-31T00:43:33;17.70;27.20
820;DHT22;392;48.838;2.322;2023-08-31T00:46:00;17.70;27.60
820;DHT22;392;48.838;2.322;2023-08-31T00:48:28;17.70;28.00
820;DHT22;392;48.838;2.322;2023-08-31T00:50:55;17.70;27.70
820;DHT22;392;48.838;2.322;2023-08-31T00:53:23;17.80;27.60
820;DHT22;392;48.838;2.322;2023-08-31T00:55:51;17.70;27.80
820;DHT22;392;48.838;2.322;2023-08-31T00:58:18;17.70;27.80
820;DHT22;392;48.838;2.322;2023-08-31T01:00:58;17.70;27.80
820;DHT22;392;48.838;2.322;2023-08-31T01:03:36;17.70;28.10
820;DHT22;392;48.838;2.322;2023-08-31T01:06:15;17.60;28.10
820;DHT22;392;48.838;2.322;2023-08-31T01:08:52;17.70;28.10
820;DHT22;392;48.838;2.322;2023-08-31T01:11:29;17.60;28.50
820;DHT22;392;48.838;2.322;2023-08-31T01:14:02;17.60;28.30
820;DHT22;392;48.838;2.322;2023-08-31T01:16:36;17.60;27.70
820;DHT22;392;48.838;2.322;2023-08-31T01:19:21;17.60;28.60
820;DHT22;392;48.838;2.322;2023-08-31T01:22:02;17.60;28.30
820;DHT22;392;48.838;2.322;2023-08-31T01:24:32;17.60;28.30
820;DHT22;392;48.838;2.322;2023-08-31T01:27:00;17.60;28.60
820;DHT22;392;48.838;2.322;2023-08-31T01:29:29;17.60;28.40
820;DHT22;392;48.838;2.322;2023-08-31T01:31:57;17.60;28.50
820;DHT22;392;48.838;2.322;2023-08-31T01:34:25;17.60;28.80
820;DHT22;392;48.838;2.322;2023-08-31T01:36:56;17.60;28.60
820;DHT22;392;48.838;2.322;2023-08-31T01:39:31;17.60;28.60
820;DHT22;392;48.838;2.322;2023-08-31T01:42:05;17.60;28.60
820;DHT22;392;48.838;2.322;2023-08-31T01:44:34;17.60;29.00
820;DHT22;392;48.838;2.322;2023-08-31T01:47:03;17.60;28.60
820;DHT22;392;48.838;2.322;2023-08-31T01:49:36;17.60;28.60
820;DHT22;392;48.838;2.322;2023-08-31T01:52:04;17.60;28.70
820;DHT22;392;48.838;2.322;2023-08-31T01:54:33;17.60;28.60
820;DHT22;392;48.838;2.322;2023-08-31T01:57:03;17.60;28.90
820;DHT22;392;48.838;2.322;2023-08-31T01:59:32;17.60;28.70
820;DHT22;392;48.838;2.322;2023-08-31T02:02:00;17.60;28.50
820;DHT22;392;48.838;2.322;2023-08-31T02:04:27;17.60;29.00
820;DHT22;392;48.838;2.322;2023-08-31T02:06:56;17.50;28.70
820;DHT22;392;48.838;2.322;2023-08-31T02:09:24;17.50;28.70
820;DHT22;392;48.838;2.322;2023-08-31T02:11:52;17.50;28.90
820;DHT22;392;48.838;2.322;2023-08-31T02:14:20;17.50;28.70
820;DHT22;392;48.838;2.322;2023-08-31T02:16:48;17.50;28.80
820;DHT22;392;48.838;2.322;2023-08-31T02:19:15;17.50;28.90
820;DHT22;392;48.838;2.322;2023-08-31T02:21:43;17.50;28.90
820;DHT22;392;48.838;2.322;2023-08-31T02:24:12;17.50;28.60
820;DHT22;392;48.838;2.322;2023-08-31T02:26:40;17.50;29.00
820;DHT22;392;48.838;2.322;2023-08-31T02:29:09;17.50;28.60
820;DHT22;392;48.838;2.322;2023-08-31T02:31:36;17.50;29.00
820;DHT22;392;48.838;2.322;2023-08-31T02:34:04;17.50;29.10
820;DHT22;392;48.838;2.322;2023-08-31T02:36:32;17.50;29.10
820;DHT22;392;48.838;2.322;2023-08-31T02:38:59;17.50;29.30
820;DHT22;392;48.838;2.322;2023-08-31T02:41:27;17.50;29.20
820;DHT22;392;48.838;2.322;2023-08-31T02:43:55;17.50;29.10
820;DHT22;392;48.838;2.322;2023-08-31T02:46:23;17.50;29.40
820;DHT22;392;48.838;2.322;2023-08-31T02:48:50;17.50;29.40
820;DHT22;392;48.838;2.322;2023-08-31T02:51:17;17.50;29.30
820;DHT22;392;48.838;2.322;2023-08-31T02:53:45;17.50;29.40
820;DHT22;392;48.838;2.322;2023-08-31T02:56:12;17.50;29.40
820;DHT22;392;48.838;2.322;2023-08-31T02:58:39;17.50;29.80
820;DHT22;392;48.838;2.322;2023-08-31T03:01:08;17.50;29.80
820;DHT22;392;48.838;2.322;2023-08-31T03:03:40;17.50;29.70
820;DHT22;392;48.838;2.322;2023-08-31T03:06:08;17.40;30.00
820;DHT22;392;48.838;2.322;2023-08-31T03:08:37;17.50;29.90
820;DHT22;392;48.838;2.322;2023-08-31T03:11:05;17.40;30.40
820;DHT22;392;48.838;2.322;2023-08-31T03:13:33;17.40;30.10
820;DHT22;392;48.838;2.322;2023-08-31T03:16:02;17.40;30.00
820;DHT22;392;48.838;2.322;2023-08-31T03:18:29;17.40;30.50
820;DHT22;392;48.838;2.322;2023-08-31T03:20:58;17.40;30.30
820;DHT22;392;48.838;2.322;2023-08-31T03:23:28;17.40;30.50
820;DHT22;392;48.838;2.322;2023-08-31T03:25:56;17.40;30.20
820;DHT22;392;48.838;2.322;2023-08-31T03:28:26;17.40;29.90
820;DHT22;392;48.838;2.322;2023-08-31T03:30:56;17.50;30.00
820;DHT22;392;48.838;2.322;2023-08-31T03:33:24;17.50;29.50
820;DHT22;392;48.838;2.322;2023-08-31T03:35:53;17.40;30.00
820;DHT22;392;48.838;2.322;2023-08-31T03:38:22;17.30;29.90
820;DHT22;392;48.838;2.322;2023-08-31T03:40:53;17.30;30.10
820;DHT22;392;48.838;2.322;2023-08-31T03:43:22;17.30;30.10
820;DHT22;392;48.838;2.322;2023-08-31T03:45:53;17.30;30.00
820;DHT22;392;48.838;2.322;2023-08-31T03:48:23;17.30;30.40
820;DHT22;392;48.838;2.322;2023-08-31T03:50:51;17.30;30.30
820;DHT22;392;48.838;2.322;2023-08-31T03:53:18;17.30;30.60
820;DHT22;392;48.838;2.322;2023-08-31T03:55:47;17.30;30.30
820;DHT22;392;48.838;2.322;2023-08-31T03:58:15;17.30;30.90
820;DHT22;392;48.838;2.322;2023-08-31T04:00:49;17.20;31.10
820;DHT22;392;48.838;2.322;2023-08-31T04:03:18;17.20;31.80
820;DHT22;392;48.838;2.322;2023-08-31T04:05:47;17.10;32.00
820;DHT22;392;48.838;2.322;2023-08-31T04:08:14;17.10;32.30
820;DHT22;392;48.838;2.322;2023-08-31T04:10:41;17.10;32.90
820;DHT22;392;48.838;2.322;2023-08-31T04:13:10;17.10;33.20
820;DHT22;392;48.838;2.322;2023-08-31T04:15:37;17.00;33.70
820;DHT22;392;48.838;2.322;2023-08-31T04:18:05;17.10;34.00
820;DHT22;392;48.838;2.322;2023-08-31T04:20:33;17.10;34.20
820;DHT22;392;48.838;2.322;2023-08-31T04:23:00;17.10;33.90
820;DHT22;392;48.838;2.322;2023-08-31T04:25:28;17.00;34.20
820;DHT22;392;48.838;2.322;2023-08-31T04:27:57;17.10;34.90
820;DHT22;392;48.838;2.322;2023-08-31T04:30:25;17.10;34.70
820;DHT22;392;48.838;2.322;2023-08-31T04:32:53;17.00;35.10
820;DHT22;392;48.838;2.322;2023-08-31T04:35:20;17.00;36.00
820;DHT22;392;48.838;2.322;2023-08-31T04:37:48;16.80;37.10
820;DHT22;392;48.838;2.322;2023-08-31T04:40:15;16.70;37.90
820;DHT22;392;48.838;2.322;2023-08-31T04:42:42;16.70;37.40
820;DHT22;392;48.838;2.322;2023-08-31T04:45:10;16.70;37.10
820;DHT22;392;48.838;2.322;2023-08-31T04:47:39;16.70;38.20
820;DHT22;392;48.838;2.322;2023-08-31T04:50:07;16.60;38.00
820;DHT22;392;48.838;2.322;2023-08-31T04:52:35;16.70;37.70
820;DHT22;392;48.838;2.322;2023-08-31T04:55:05;16.70;37.10
820;DHT22;392;48.838;2.322;2023-08-31T04:57:34;16.70;37.40
820;DHT22;392;48.838;2.322;2023-08-31T05:00:02;16.80;37.10
820;DHT22;392;48.838;2.322;2023-08-31T05:02:31;16.80;36.10
820;DHT22;392;48.838;2.322;2023-08-31T05:05:00;16.80;36.10
820;DHT22;392;48.838;2.322;2023-08-31T05:07:27;16.90;35.20
820;DHT22;392;48.838;2.322;2023-08-31T05:09:54;16.80;35.10
820;DHT22;392;48.838;2.322;2023-08-31T05:12:21;16.80;34.80
820;DHT22;392;48.838;2.322;2023-08-31T05:14:49;16.70;35.50
820;DHT22;392;48.838;2.322;2023-08-31T05:17:16;16.70;36.10
820;DHT22;392;48.838;2.322;2023-08-31T05:19:43;16.70;35.80
820;DHT22;392;48.838;2.322;2023-08-31T05:22:13;16.70;35.00
820;DHT22;392;48.838;2.322;2023-08-31T05:24:40;16.80;35.70
820;DHT22;392;48.838;2.322;2023-08-31T05:27:07;16.80;35.40
820;DHT22;392;48.838;2.322;2023-08-31T05:29:35;16.90;35.20
820;DHT22;392;48.838;2.322;2023-08-31T05:32:02;16.90;35.20
820;DHT22;392;48.838;2.322;2023-08-31T05:34:30;16.90;35.20
820;DHT22;392;48.838;2.322;2023-08-31T05:37:00;16.90;35.70
820;DHT22;392;48.838;2.322;2023-08-31T05:39:29;16.90;35.20
820;DHT22;392;48.838;2.322;2023-08-31T05:41:57;17.00;35.30
820;DHT22;392;48.838;2.322;2023-08-31T05:44:24;17.00;35.00
820;DHT22;392;48.838;2.322;2023-08-31T05:46:51;17.00;35.30
820;DHT22;392;48.838;2.322;2023-08-31T05:49:18;17.00;35.30
820;DHT22;392;48.838;2.322;2023-08-31T05:51:46;17.00;35.30
820;DHT22;392;48.838;2.322;2023-08-31T05:54:13;17.10;35.10
820;DHT22;392;48.838;2.322;2023-08-31T05:56:42;17.10;35.40
820;DHT22;392;48.838;2.322;2023-08-31T05:59:09;17.00;35.30
820;DHT22;392;48.838;2.322;2023-08-31T06:01:36;17.10;35.40
820;DHT22;392;48.838;2.322;2023-08-31T06:04:04;17.10;35.40
820;DHT22;392;48.838;2.322;2023-08-31T06:06:32;17.10;35.00
820;DHT22;392;48.838;2.322;2023-08-31T06:08:59;17.10;35.40
820;DHT22;392;48.838;2.322;2023-08-31T06:11:26;17.10;35.00
820;DHT22;392;48.838;2.322;2023-08-31T06:13:55;17.10;35.40
820;DHT22;392;48.838;2.322;2023-08-31T06:16:23;17.10;35.30
820;DHT22;392;48.838;2.322;2023-08-31T06:18:50;17.10;35.40
820;DHT22;392;48.838;2.322;2023-08-31T06:21:18;17.10;35.30
820;DHT22;392;48.838;2.322;2023-08-31T06:23:45;17.20;34.80
820;DHT22;392;48.838;2.322;2023-08-31T06:26:12;17.20;34.70
820;DHT22;392;48.838;2.322;2023-08-31T06:28:40;17.30;34.80
820;DHT22;392;48.838;2.322;2023-08-31T06:31:08;17.30;34.00
820;DHT22;392;48.838;2.322;2023-08-31T06:33:36;17.40;33.70
820;DHT22;392;48.838;2.322;2023-08-31T06:36:04;17.50;32.30
820;DHT22;392;48.838;2.322;2023-08-31T06:38:31;17.60;31.70
820;DHT22;392;48.838;2.322;2023-08-31T06:40:58;17.60;32.00
820;DHT22;392;48.838;2.322;2023-08-31T06:43:25;17.70;33.00
820;DHT22;392;48.838;2.322;2023-08-31T06:45:53;17.70;32.40
820;DHT22;392;48.838;2.322;2023-08-31T06:48:22;17.70;32.00
820;DHT22;392;48.838;2.322;2023-08-31T06:50:51;17.80;32.20
820;DHT22;392;48.838;2.322;2023-08-31T06:53:18;17.80;32.20
820;DHT22;392;48.838;2.322;2023-08-31T06:55:45;17.80;31.90
820;DHT22;392;48.838;2.322;2023-08-31T06:58:13;17.80;32.70
820;DHT22;392;48.838;2.322;2023-08-31T07:00:40;17.70;32.00
820;DHT22;392;48.838;2.322;2023-08-31T07:03:08;17.70;32.30
820;DHT22;392;48.838;2.322;2023-08-31T07:05:42;17.70;32.30
820;DHT22;392;48.838;2.322;2023-08-31T07:08:10;17.60;33.00
820;DHT22;392;48.838;2.322;2023-08-31T07:10:37;17.60;33.70
820;DHT22;392;48.838;2.322;2023-08-31T07:13:05;17.60;33.00
820;DHT22;392;48.838;2.322;2023-08-31T07:15:32;17.70;32.30
820;DHT22;392;48.838;2.322;2023-08-31T07:17:59;17.80;32.10
820;DHT22;392;48.838;2.322;2023-08-31T07:20:27;17.80;31.70
820;DHT22;392;48.838;2.322;2023-08-31T07:22:55;17.80;32.00
820;DHT22;392;48.838;2.322;2023-08-31T07:25:23;17.90;31.10
820;DHT22;392;48.838;2.322;2023-08-31T07:27:50;17.90;31.60
820;DHT22;392;48.838;2.322;2023-08-31T07:30:18;17.90;31.10
820;DHT22;392;48.838;2.322;2023-08-31T07:32:45;18.00;31.00
820;DHT22;392;48.838;2.322;2023-08-31T07:35:12;18.00;31.00
820;DHT22;392;48.838;2.322;2023-08-31T07:37:40;18.10;30.10
820;DHT22;392;48.838;2.322;2023-08-31T07:40:10;18.10;29.40
820;DHT22;392;48.838;2.322;2023-08-31T07:42:38;18.10;29.80
820;DHT22;392;48.838;2.322;2023-08-31T07:45:06;18.00;29.90
820;DHT22;392;48.838;2.322;2023-08-31T07:47:34;18.00;30.30
820;DHT22;392;48.838;2.322;2023-08-31T07:50:02;18.10;30.30
820;DHT22;392;48.838;2.322;2023-08-31T07:52:29;18.10;29.90
820;DHT22;392;48.838;2.322;2023-08-31T07:54:57;18.20;29.70
820;DHT22;392;48.838;2.322;2023-08-31T07:57:26;18.30;29.50
820;DHT22;392;48.838;2.322;2023-08-31T07:59:53;18.40;28.90
820;DHT22;392;48.838;2.322;2023-08-31T08:02:20;18.60;28.40
820;DHT22;392;48.838;2.322;2023-08-31T08:04:47;18.60;27.70
820;DHT22;392;48.838;2.322;2023-08-31T08:07:15;18.70;28.60
820;DHT22;392;48.838;2.322;2023-08-31T08:09:42;18.80;27.60
820;DHT22;392;48.838;2.322;2023-08-31T08:12:09;18.90;26.60
820;DHT22;392;48.838;2.322;2023-08-31T08:14:38;18.90;26.60
820;DHT22;392;48.838;2.322;2023-08-31T08:17:05;18.80;26.50
820;DHT22;392;48.838;2.322;2023-08-31T08:19:32;18.90;26.70
820;DHT22;392;48.838;2.322;2023-08-31T08:22:00;18.90;26.80
820;DHT22;392;48.838;2.322;2023-08-31T08:24:27;19.00;26.30
820;DHT22;392;48.838;2.322;2023-08-31T08:26:54;19.10;25.90
820;DHT22;392;48.838;2.322;2023-08-31T08:29:22;19.40;24.10
820;DHT22;392;48.838;2.322;2023-08-31T08:31:50;19.40;24.50
820;DHT22;392;48.838;2.322;2023-08-31T08:34:18;19.40;24.50
820;DHT22;392;48.838;2.322;2023-08-31T08:36:45;19.60;24.20
820;DHT22;392;48.838;2.322;2023-08-31T08:39:12;19.60;23.80
820;DHT22;392;48.838;2.322;2023-08-31T08:41:40;19.60;24.00
820;DHT22;392;48.838;2.322;2023-08-31T08:44:08;19.60;24.00
820;DHT22;392;48.838;2.322;2023-08-31T08:46:36;19.80;23.90
820;DHT22;392;48.838;2.322;2023-08-31T08:49:05;19.80;23.60
820;DHT22;392;48.838;2.322;2023-08-31T08:51:34;19.80;23.60
820;DHT22;392;48.838;2.322;2023-08-31T08:54:02;19.60;23.00
820;DHT22;392;48.838;2.322;2023-08-31T08:56:30;19.50;23.70
820;DHT22;392;48.838;2.322;2023-08-31T08:58:57;19.40;23.60
820;DHT22;392;48.838;2.322;2023-08-31T09:01:25;19.30;23.60
820;DHT22;392;48.838;2.322;2023-08-31T09:03:52;19.30;24.10
820;DHT22;392;48.838;2.322;2023-08-31T09:06:22;19.30;24.00
820;DHT22;392;48.838;2.322;2023-08-31T09:08:53;19.30;24.30
820;DHT22;392;48.838;2.322;2023-08-31T09:11:22;19.20;24.10
820;DHT22;392;48.838;2.322;2023-08-31T09:13:49;19.20;24.80
820;DHT22;392;48.838;2.322;2023-08-31T09:16:24;19.30;25.20
820;DHT22;392;48.838;2.322;2023-08-31T09:18:52;19.30;25.90
820;DHT22;392;48.838;2.322;2023-08-31T09:21:20;19.40;26.00
820;DHT22;392;48.838;2.322;2023-08-31T09:23:56;19.40;26.00
820;DHT22;392;48.838;2.322;2023-08-31T09:26:24;19.40;26.90
820;DHT22;392;48.838;2.322;2023-08-31T09:28:52;19.50;27.20
820;DHT22;392;48.838;2.322;2023-08-31T09:31:19;19.80;26.30
820;DHT22;392;48.838;2.322;2023-08-31T09:33:50;20.00;26.10
820;DHT22;392;48.838;2.322;2023-08-31T09:36:21;20.10;25.20
820;DHT22;392;48.838;2.322;2023-08-31T09:38:49;20.10;25.10
820;DHT22;392;48.838;2.322;2023-08-31T09:41:16;20.00;25.60
820;DHT22;392;48.838;2.322;2023-08-31T09:43:43;20.00;25.20
820;DHT22;392;48.838;2.322;2023-08-31T09:46:11;20.00;25.60
820;DHT22;392;48.838;2.322;2023-08-31T09:48:40;20.10;25.30
820;DHT22;392;48.838;2.322;2023-08-31T09:51:10;20.10;25.90
820;DHT22;392;48.838;2.322;2023-08-31T09:53:41;20.00;26.10
820;DHT22;392;48.838;2.322;2023-08-31T09:56:11;20.10;27.20
820;DHT22;392;48.838;2.322;2023-08-31T09:58:41;20.00;26.90
820;DHT22;392;48.838;2.322;2023-08-31T10:01:08;19.90;26.70
820;DHT22;392;48.838;2.322;2023-08-31T10:03:36;19.90;27.10
820;DHT22;392;48.838;2.322;2023-08-31T10:06:04;19.80;26.40
820;DHT22;392;48.838;2.322;2023-08-31T10:08:33;19.80;26.90
820;DHT22;392;48.838;2.322;2023-08-31T10:11:04;19.70;26.80
820;DHT22;392;48.838;2.322;2023-08-31T10:13:32;19.50;27.60
820;DHT22;392;48.838;2.322;2023-08-31T10:16:04;19.50;28.90
820;DHT22;392;48.838;2.322;2023-08-31T10:18:34;19.40;29.70
820;DHT22;392;48.838;2.322;2023-08-31T10:21:02;19.50;30.30
820;DHT22;392;48.838;2.322;2023-08-31T10:23:31;19.50;30.80
820;DHT22;392;48.838;2.322;2023-08-31T10:26:03;19.40;32.20
820;DHT22;392;48.838;2.322;2023-08-31T10:28:39;19.50;31.90
820;DHT22;392;48.838;2.322;2023-08-31T10:31:08;19.50;32.10
820;DHT22;392;48.838;2.322;2023-08-31T10:33:41;19.50;33.10
820;DHT22;392;48.838;2.322;2023-08-31T10:36:19;19.50;32.40
820;DHT22;392;48.838;2.322;2023-08-31T10:38:50;19.60;31.90
820;DHT22;392;48.838;2.322;2023-08-31T10:41:33;19.60;31.70
820;DHT22;392;48.838;2.322;2023-08-31T10:44:02;19.80;32.10
820;DHT22;392;48.838;2.322;2023-08-31T10:46:31;19.80;31.90
820;DHT22;392;48.838;2.322;2023-08-31T10:49:00;19.80;30.10
820;DHT22;392;48.838;2.322;2023-08-31T10:51:30;19.70;31.00
820;DHT22;392;48.838;2.322;2023-08-31T10:54:05;19.60;32.00
820;DHT22;392;48.838;2.322;2023-08-31T10:56:54;19.50;30.00
820;DHT22;392;48.838;2.322;2023-08-31T10:59:46;19.50;31.80
820;DHT22;392;48.838;2.322;2023-08-31T11:02:30;19.50;31.80
820;DHT22;392;48.838;2.322;2023-08-31T11:05:02;19.70;30.10
820;DHT22;392;48.838;2.322;2023-08-31T11:07:33;19.80;30.00
820;DHT22;392;48.838;2.322;2023-08-31T11:10:09;20.00;29.60
820;DHT22;392;48.838;2.322;2023-08-31T11:12:45;19.90;28.70
820;DHT22;392;48.838;2.322;2023-08-31T11:15:15;19.80;29.30
820;DHT22;392;48.838;2.322;2023-08-31T11:17:43;19.70;29.20
820;DHT22;392;48.838;2.322;2023-08-31T11:20:14;19.60;27.90
820;DHT22;392;48.838;2.322;2023-08-31T11:22:43;19.60;27.60
820;DHT22;392;48.838;2.322;2023-08-31T11:25:13;19.60;27.20
820;DHT22;392;48.838;2.322;2023-08-31T11:27:40;19.60;27.20
820;DHT22;392;48.838;2.322;2023-08-31T11:30:14;19.60;25.60
820;DHT22;392;48.838;2.322;2023-08-31T11:32:46;19.60;24.80
820;DHT22;392;48.838;2.322;2023-08-31T11:35:14;19.60;24.60
820;DHT22;392;48.838;2.322;2023-08-31T11:37:43;19.50;24.60
820;DHT22;392;48.838;2.322;2023-08-31T11:40:13;19.50;23.70
820;DHT22;392;48.838;2.322;2023-08-31T11:42:41;19.60;23.30
820;DHT22;392;48.838;2.322;2023-08-31T11:45:10;19.60;23.00
820;DHT22;392;48.838;2.322;2023-08-31T11:47:41;19.70;22.70
820;DHT22;392;48.838;2.322;2023-08-31T11:50:11;19.60;21.80
820;DHT22;392;48.838;2.322;2023-08-31T11:52:38;19.50;22.10
820;DHT22;392;48.838;2.322;2023-08-31T11:55:10;19.50;21.30
820;DHT22;392;48.838;2.322;2023-08-31T11:57:38;19.60;22.50
820;DHT22;392;48.838;2.322;2023-08-31T12:00:07;19.60;23.30
820;DHT22;392;48.838;2.322;2023-08-31T12:02:36;19.50;24.30
820;DHT22;392;48.838;2.322;2023-08-31T12:05:06;19.40;27.50
820;DHT22;392;48.838;2.322;2023-08-31T12:07:39;19.20;29.90
820;DHT22;392;48.838;2.322;2023-08-31T12:10:08;18.90;31.90
820;DHT22;392;48.838;2.322;2023-08-31T12:12:36;18.60;36.80
820;DHT22;392;48.838;2.322;2023-08-31T12:15:04;18.40;40.80
820;DHT22;392;48.838;2.322;2023-08-31T12:17:37;18.20;46.10
820;DHT22;392;48.838;2.322;2023-08-31T12:20:07;18.00;52.00
820;DHT22;392;48.838;2.322;2023-08-31T12:22:35;17.80;54.10
820;DHT22;392;48.838;2.322;2023-08-31T12:25:03;17.70;55.50
820;DHT22;392;48.838;2.322;2023-08-31T12:27:31;17.60;56.90
820;DHT22;392;48.838;2.322;2023-08-31T12:29:58;17.50;56.70
820;DHT22;392;48.838;2.322;2023-08-31T12:32:25;17.40;57.80
820;DHT22;392;48.838;2.322;2023-08-31T12:34:53;17.40;57.90
820;DHT22;392;48.838;2.322;2023-08-31T12:37:21;17.40;59.50
820;DHT22;392;48.838;2.322;2023-08-31T12:39:49;17.60;60.90
820;DHT22;392;48.838;2.322;2023-08-31T12:42:16;17.70;61.30
820;DHT22;392;48.838;2.322;2023-08-31T12:44:44;17.90;60.40
820;DHT22;392;48.838;2.322;2023-08-31T12:47:11;18.00;59.50
820;DHT22;392;48.838;2.322;2023-08-31T12:49:38;18.10;57.20
820;DHT22;392;48.838;2.322;2023-08-31T12:52:05;18.20;51.70
820;DHT22;392;48.838;2.322;2023-08-31T12:54:34;18.30;52.90
820;DHT22;392;48.838;2.322;2023-08-31T12:57:02;18.40;54.50
820;DHT22;392;48.838;2.322;2023-08-31T12:59:31;18.30;53.80
820;DHT22;392;48.838;2.322;2023-08-31T13:01:58;18.40;55.10
820;DHT22;392;48.838;2.322;2023-08-31T13:04:26;18.40;56.90
820;DHT22;392;48.838;2.322;2023-08-31T13:06:54;18.40;56.60
820;DHT22;392;48.838;2.322;2023-08-31T13:09:22;18.40;57.00
820;DHT22;392;48.838;2.322;2023-08-31T13:11:51;18.40;58.10
820;DHT22;392;48.838;2.322;2023-08-31T13:14:19;18.50;60.60
820;DHT22;392;48.838;2.322;2023-08-31T13:16:46;18.50;61.50
820;DHT22;392;48.838;2.322;2023-08-31T13:19:14;18.60;62.20
820;DHT22;392;48.838;2.322;2023-08-31T13:21:41;18.50;65.60
820;DHT22;392;48.838;2.322;2023-08-31T13:24:08;18.50;67.90
820;DHT22;392;48.838;2.322;2023-08-31T13:26:36;18.50;68.90
820;DHT22;392;48.838;2.322;2023-08-31T13:29:04;18.40;70.70
820;DHT22;392;48.838;2.322;2023-08-31T13:31:31;18.50;73.70
820;DHT22;392;48.838;2.322;2023-08-31T13:33:59;18.50;75.30
820;DHT22;392;48.838;2.322;2023-08-31T13:36:28;18.50;75.30
820;DHT22;392;48.838;2.322;2023-08-31T13:41:23;18.50;76.40
820;DHT22;392;48.838;2.322;2023-08-31T13:43:50;18.50;78.80
820;DHT22;392;48.838;2.322;2023-08-31T13:46:19;18.50;79.20
820;DHT22;392;48.838;2.322;2023-08-31T13:48:46;18.40;79.80
820;DHT22;392;48.838;2.322;2023-08-31T13:51:14;18.30;80.80
820;DHT22;392;48.838;2.322;2023-08-31T13:53:41;18.20;82.70
820;DHT22;392;48.838;2.322;2023-08-31T13:56:08;18.20;83.30
820;DHT22;392;48.838;2.322;2023-08-31T13:58:35;18.20;84.50
820;DHT22;392;48.838;2.322;2023-08-31T14:01:03;18.20;85.60
820;DHT22;392;48.838;2.322;2023-08-31T14:03:32;18.30;86.70
820;DHT22;392;48.838;2.322;2023-08-31T14:05:59;18.30;87.10
820;DHT22;392;48.838;2.322;2023-08-31T14:10:54;18.40;86.20
820;DHT22;392;48.838;2.322;2023-08-31T14:13:21;18.40;86.80
820;DHT22;392;48.838;2.322;2023-08-31T14:15:49;18.40;87.30
820;DHT22;392;48.838;2.322;2023-08-31T14:18:16;18.40;87.30
820;DHT22;392;48.838;2.322;2023-08-31T14:20:45;18.40;87.90
820;DHT22;392;48.838;2.322;2023-08-31T14:23:12;18.40;88.50
820;DHT22;392;48.838;2.322;2023-08-31T14:25:39;18.40;88.50
820;DHT22;392;48.838;2.322;2023-08-31T14:28:07;18.40;89.30
820;DHT22;392;48.838;2.322;2023-08-31T14:30:35;18.40;89.70
820;DHT22;392;48.838;2.322;2023-08-31T14:33:03;18.40;90.10
820;DHT22;392;48.838;2.322;2023-08-31T14:35:31;18.40;90.20
820;DHT22;392;48.838;2.322;2023-08-31T14:38:00;18.50;90.20
820;DHT22;392;48.838;2.322;2023-08-31T14:40:27;18.60;90.60
820;DHT22;392;48.838;2.322;2023-08-31T14:42:54;18.50;90.80
820;DHT22;392;48.838;2.322;2023-08-31T14:45:22;18.60;90.50
820;DHT22;392;48.838;2.322;2023-08-31T14:47:49;18.60;90.00
820;DHT22;392;48.838;2.322;2023-08-31T14:50:16;18.70;89.90
820;DHT22;392;48.838;2.322;2023-08-31T14:52:43;18.60;88.80
820;DHT22;392;48.838;2.322;2023-08-31T14:55:12;18.70;89.20
820;DHT22;392;48.838;2.322;2023-08-31T14:57:39;18.70;89.70
820;DHT22;392;48.838;2.322;2023-08-31T15:00:08;18.70;89.10
820;DHT22;392;48.838;2.322;2023-08-31T15:02:37;18.70;88.80
820;DHT22;392;48.838;2.322;2023-08-31T15:05:04;18.70;88.10
820;DHT22;392;48.838;2.322;2023-08-31T15:07:32;18.70;88.10
820;DHT22;392;48.838;2.322;2023-08-31T15:09:59;18.70;87.60
820;DHT22;392;48.838;2.322;2023-08-31T15:12:28;18.70;88.10
820;DHT22;392;48.838;2.322;2023-08-31T15:14:56;18.80;88.90
820;DHT22;392;48.838;2.322;2023-08-31T15:17:23;18.80;88.90
820;DHT22;392;48.838;2.322;2023-08-31T15:19:50;18.80;89.70
820;DHT22;392;48.838;2.322;2023-08-31T15:22:18;18.90;89.70
820;DHT22;392;48.838;2.322;2023-08-31T15:24:46;19.00;89.20
820;DHT22;392;48.838;2.322;2023-08-31T15:27:13;19.00;89.00
820;DHT22;392;48.838;2.322;2023-08-31T15:29:42;19.10;89.00
820;DHT22;392;48.838;2.322;2023-08-31T15:32:10;19.20;88.70
820;DHT22;392;48.838;2.322;2023-08-31T15:34:38;19.20;88.20
820;DHT22;392;48.838;2.322;2023-08-31T15:37:05;19.30;88.30
820;DHT22;392;48.838;2.322;2023-08-31T15:39:32;19.30;88.90
820;DHT22;392;48.838;2.322;2023-08-31T15:41:59;19.20;87.60
820;DHT22;392;48.838;2.322;2023-08-31T15:44:27;19.20;86.80
820;DHT22;392;48.838;2.322;2023-08-31T15:46:55;19.20;87.20
820;DHT22;392;48.838;2.322;2023-08-31T15:49:23;19.20;87.50
820;DHT22;392;48.838;2.322;2023-08-31T15:51:51;19.20;88.10
820;DHT22;392;48.838;2.322;2023-08-31T15:54:18;19.20;88.50
820;DHT22;392;48.838;2.322;2023-08-31T15:56:45;19.20;88.30
820;DHT22;392;48.838;2.322;2023-08-31T15:59:13;19.20;88.30
820;DHT22;392;48.838;2.322;2023-08-31T16:01:40;19.30;89.00
820;DHT22;392;48.838;2.322;2023-08-31T16:04:09;19.30;89.00
820;DHT22;392;48.838;2.322;2023-08-31T16:09:05;19.30;88.10
820;DHT22;392;48.838;2.322;2023-08-31T16:11:33;19.40;88.90
820;DHT22;392;48.838;2.322;2023-08-31T16:14:00;19.40;88.90
820;DHT22;392;48.838;2.322;2023-08-31T16:16:28;19.50;89.30
820;DHT22;392;48.838;2.322;2023-08-31T16:18:55;19.60;89.20
820;DHT22;392;48.838;2.322;2023-08-31T16:21:24;19.70;87.30
820;DHT22;392;48.838;2.322;2023-08-31T16:23:52;19.70;87.80
820;DHT22;392;48.838;2.322;2023-08-31T16:26:19;19.80;87.80
820;DHT22;392;48.838;2.322;2023-08-31T16:28:46;19.80;85.80
820;DHT22;392;48.838;2.322;2023-08-31T16:31:14;19.80;84.00
820;DHT22;392;48.838;2.322;2023-08-31T16:33:41;19.80;84.40
820;DHT22;392;48.838;2.322;2023-08-31T16:36:09;19.80;84.40
820;DHT22;392;48.838;2.322;2023-08-31T16:38:37;19.80;84.40
820;DHT22;392;48.838;2.322;2023-08-31T16:41:04;19.80;85.10
820;DHT22;392;48.838;2.322;2023-08-31T16:43:33;19.90;84.60
820;DHT22;392;48.838;2.322;2023-08-31T16:46:00;19.90;84.20
820;DHT22;392;48.838;2.322;2023-08-31T16:48:28;19.90;83.30
820;DHT22;392;48.838;2.322;2023-08-31T16:50:55;19.90;83.30